Terminal Aerodrome Forecast
Issued by NWS Sterling, VA

Current Version | Previous Version | Text Only | Print | Product List | Glossary Off
Versions: 1 2 3 4 5 6 7 8 9 10 11 12 13 14

000
FTUS41 KLWX 241700
TAFMRB
TAF
KMRB 241730Z 2418/2518 10005KT P6SM BKN050
     FM250000 VRB03KT P6SM FEW250
     FM250600 00000KT 5SM BR FEW250
     FM251300 VRB03KT P6SM FEW250=

USA.gov is the U.S. government's official web portal to all federal, state and local government web resources and services.